Flight Track Log - Related Links

Times and Time Zones

All times are in EST time to prevent confusion due to time zone crossing. See the CES2375 flight status page for this flight to view local times or setup timezone preferences in your user account.

Time Position Orientation Groundspeed Altitude Reporting Facility
EST Latitude Longitude Course Direction KTS MPH feet Rate Location/Type
Tue 06:00:00 AM 34.7054 107.4324 284° West  Level Estimated
Tue 06:01:00 AM 34.7263 107.3221 283° West  Level Estimated
Tue 06:02:00 AM 34.7471 107.2117 283° West  Level Estimated
Tue 06:03:00 AM 34.7678 107.1013 283° West  Level Estimated
Tue 06:04:00 AM 34.7883 106.9908 283° West  Level Estimated
Tue 06:05:00 AM 34.8088 106.8803 283° West  Level Estimated
Tue 06:06:00 AM 34.8292 106.7697 283° West  Level Estimated
Tue 06:07:00 AM 34.8495 106.6591 283° West  Level Estimated
Tue 06:08:00 AM 34.8697 106.5484 283° West  Level Estimated
Tue 06:09:00 AM 34.8898 106.4376 282° West  Level Estimated
Tue 06:10:00 AM 34.9097 106.3268 282° West  Level Estimated
Tue 06:11:00 AM 34.9296 106.2160 282° West  Level Estimated
Tue 06:12:00 AM 34.9494 106.1051 282° West  Level Estimated
Tue 06:13:00 AM 34.9691 105.9941 282° West  Level Estimated
Tue 06:14:00 AM 34.9887 105.8831 282° West  Level Estimated
Tue 06:15:00 AM 35.0081 105.7721 282° West  Level Estimated
Tue 06:16:00 AM 35.0275 105.6609 282° West  Level Estimated
Tue 06:17:00 AM 35.0468 105.5498 282° West  Level Estimated
Tue 06:18:00 AM 35.0660 105.4386 282° West  Level Estimated
Tue 06:19:00 AM 35.0850 105.3273 282° West  Level Estimated
Tue 06:20:00 AM 35.1040 105.2160 282° West  Level Estimated
Tue 06:21:00 AM 35.1229 105.1046 282° West  Level Estimated
Tue 06:22:00 AM 35.1417 104.9931 282° West  Level Estimated
Tue 06:23:00 AM 35.1603 104.8817 282° West  Level Estimated
Tue 06:24:00 AM 35.1789 104.7701 282° West  Level Estimated
Tue 06:25:00 AM 35.1973 104.6585 281° West  Level Estimated
Tue 06:26:00 AM 35.2157 104.5469 281° West  Level Estimated
Tue 06:27:00 AM 35.2340 104.4352 281° West  Level Estimated
Tue 06:28:00 AM 35.2521 104.3235 281° West  Level Estimated
Tue 06:29:00 AM 35.2702 104.2117 281° West  Level Estimated
Tue 06:30:00 AM 35.2881 104.0999 281° West  Level Estimated
Tue 06:31:00 AM 35.3060 103.9880 281° West  Level Estimated
Tue 06:32:00 AM 35.3237 103.8761 281° West  Level Estimated
Tue 06:33:00 AM 35.3413 103.7641 281° West  Level Estimated
Tue 06:34:00 AM 35.3589 103.6521 281° West  Level Estimated
Tue 06:35:00 AM 35.3763 103.5400 281° West  Level Estimated
Tue 06:36:00 AM 35.3936 103.4279 281° West  Level Estimated
Tue 06:37:00 AM 35.4109 103.3157 281° West  Level Estimated
Tue 06:38:00 AM 35.4280 103.2035 281° West  Level Estimated
Tue 06:39:00 AM 35.4450 103.0912 281° West  Level Estimated
Tue 06:40:00 AM 35.4619 102.9789 281° West  Level Estimated
Tue 06:41:00 AM 35.4787 102.8665 280° West  Level Estimated
Tue 06:42:00 AM 35.4954 102.7541 280° West  Level Estimated
Tue 06:43:00 AM 35.5120 102.6417 280° West  Level Estimated
Tue 06:44:00 AM 35.5285 102.5292 280° West  Level Estimated
Tue 06:45:00 AM 35.5449 102.4166 280° West  Level Estimated
Tue 06:46:00 AM 35.5612 102.3040 280° West  Level Estimated
Tue 06:47:00 AM 35.5774 102.1914 280° West  Level Estimated
Tue 06:48:00 AM 35.5935 102.0787 280° West  Level Estimated
Tue 06:49:00 AM 35.6095 101.9660 280° West  Level Estimated
Tue 06:50:00 AM 35.6253 101.8532 280° West  Level Estimated
Tue 06:51:00 AM 35.6411 101.7403 280° West  Level Estimated
Tue 06:52:00 AM 35.6567 101.6275 280° West  Level Estimated
Tue 06:53:00 AM 35.6723 101.5146 280° West  Level Estimated
Tue 06:54:00 AM 35.6877 101.4016 280° West  Level Estimated
Tue 06:55:00 AM 35.7031 101.2886 280° West  Level Estimated
Tue 06:56:00 AM 35.7183 101.1756 279° West  Level Estimated
Tue 06:57:00 AM 35.7335 101.0625 279° West  Level Estimated
Tue 06:58:00 AM 35.7485 100.9494 279° West  Level Estimated
Tue 06:59:00 AM 35.7634 100.8362 279° West  Level Estimated
Tue 07:00:00 AM 35.7782 100.7230 279° West  Level Estimated
Tue 07:01:00 AM 35.7929 100.6097 279° West  Level Estimated
Tue 07:02:00 AM 35.8075 100.4964 279° West  Level Estimated
Tue 07:03:00 AM 35.8220 100.3831 279° West  Level Estimated
Tue 07:04:00 AM 35.8364 100.2697 279° West  Level Estimated
Tue 07:05:00 AM 35.8507 100.1563 279° West  Level Estimated
Tue 07:06:00 AM 35.8648 100.0428 279° West  Level Estimated
Tue 07:07:00 AM 35.8789 99.9293 279° West  Level Estimated
Tue 07:08:00 AM 35.8929 99.8158 279° West  Level Estimated
Tue 07:09:00 AM 35.9067 99.7022 279° West  Level Estimated
Tue 07:10:00 AM 35.9205 99.5886 279° West  Level Estimated
Tue 07:11:00 AM 35.9341 99.4749 278° West  Level Estimated
Tue 07:12:00 AM 35.9476 99.3612 278° West  Level Estimated
Tue 07:13:00 AM 35.9611 99.2475 278° West  Level Estimated
Tue 07:14:00 AM 35.9744 99.1337 278° West  Level Estimated
Tue 07:15:00 AM 35.9876 99.0199 278° West  Level Estimated
Tue 07:16:00 AM 36.0007 98.9061 278° West  Level Estimated
Tue 07:17:00 AM 36.0137 98.7922 278° West  Level Estimated
Tue 07:18:00 AM 36.0266 98.6782 278° West  Level Estimated
Tue 07:19:00 AM 36.0394 98.5643 278° West  Level Estimated
Tue 07:20:00 AM 36.0520 98.4503 278° West  Level Estimated
Tue 07:21:00 AM 36.0646 98.3362 278° West  Level Estimated
Tue 07:22:00 AM 36.0771 98.2222 278° West  Level Estimated
Tue 07:23:00 AM 36.0894 98.1081 278° West  Level Estimated
Tue 07:24:00 AM 36.1017 97.9939 278° West  Level Estimated
Tue 07:25:00 AM 36.1138 97.8797 278° West  Level Estimated
Tue 07:26:00 AM 36.1258 97.7655 277° West  Level Estimated
Tue 07:27:00 AM 36.1377 97.6513 277° West  Level Estimated
Tue 07:28:00 AM 36.1495 97.5370 277° West  Level Estimated
Tue 07:29:00 AM 36.1612 97.4227 277° West  Level Estimated
Tue 07:30:00 AM 36.1728 97.3083 277° West  Level Estimated
Tue 07:31:00 AM 36.1843 97.1939 277° West  Level Estimated
Tue 07:32:00 AM 36.1957 97.0795 277° West  Level Estimated
Tue 07:33:00 AM 36.2069 96.9650 277° West  Level Estimated
Tue 07:34:00 AM 36.2181 96.8505 277° West  Level Estimated
Tue 07:35:00 AM 36.2291 96.7360 277° West  Level Estimated
Tue 07:36:00 AM 36.2401 96.6215 277° West  Level Estimated
Tue 07:37:00 AM 36.2509 96.5069 277° West  Level Estimated
Tue 07:38:00 AM 36.2616 96.3923 277° West  Level Estimated
Tue 07:39:00 AM 36.2722 96.2776 277° West  Level Estimated
Tue 07:40:00 AM 36.2827 96.1630 277° West  Level Estimated
Tue 07:41:00 AM 36.2931 96.0482 276° West  Level Estimated
Tue 07:42:00 AM 36.3034 95.9335 276° West  Level Estimated
Tue 07:43:00 AM 36.3136 95.8187 276° West  Level Estimated
Tue 07:44:00 AM 36.3236 95.7039 276° West  Level Estimated
Tue 07:45:00 AM 36.3336 95.5891 276° West  Level Estimated
Tue 07:46:00 AM 36.3434 95.4743 276° West  Level Estimated
Tue 07:47:00 AM 36.3531 95.3594 276° West  Level Estimated
Tue 07:48:00 AM 36.3628 95.2445 276° West  Level Estimated
Tue 07:49:00 AM 36.3730 95.1205 276° West  Level Estimated
Tue 07:50:00 AM 36.3831 94.9965 276° West  Level Estimated
Tue 07:51:00 AM 36.3931 94.8725 276° West  Level Estimated
Tue 07:52:00 AM 36.4000 94.7861 276° West  Level Estimated
Tue 07:53:00 AM 36.4000 94.7861 90° East  Level Estimated
Tue 07:54:00 AM 36.4000 94.7861 90° East  Level Estimated
Tue 07:55:00 AM 36.4000 94.7861 90° East  Level Estimated
Tue 07:56:00 AM 36.4000 94.7861 90° East  Level Estimated
Tue 07:57:00 AM 36.4000 94.7861 90° East  Level Estimated
Tue 07:58:00 AM 36.4000 94.7861 90° East  Level Estimated
Tue 07:59:00 AM 36.4000 94.7861 90° East  Level Estimated

Login

Don't have an account? Register now (free) for customized features, flight alerts, and more!